This is the latest recevied weather packets stored in our database for station/object Ad4UU. If no packets are shown the sender has not sent any weather packets the latest 10 day(s).
| Time | Temp. | Humidity | Pressure | Rain* | Wind** | Luminosity | Snow |
|---|---|---|---|---|---|---|---|
| 1777885531 | 13.89° C | 90% | 1018.2 hPa | 0 mm | - | - | - |
| 1777884363 | 14.44° C | 90% | 1018.3 hPa | 0 mm | - | - | - |
| 1777884029 | 14.44° C | 90% | 1018.1 hPa | 0 mm | - | - | - |
| 1777883729 | 14.44° C | 89% | 1018.2 hPa | 0 mm | - | - | - |
| 1777883446 | 14.44° C | 89% | 1018.2 hPa | 0 mm | - | - | - |
| 1777881658 | 14.44° C | 88% | 1018.4 hPa | 0 mm | - | - | - |
| 1777877431 | 15° C | 87% | 1018.7 hPa | 0 mm | - | - | - |
| 1777876242 | 15° C | 87% | 1018.7 hPa | 0 mm | - | - | - |
| 1777875349 | 15.56° C | 87% | 1018.6 hPa | 0 mm | - | - | - |
| 1777873543 | 15.56° C | 86% | 1019 hPa | 0 mm | - | - | - |
| 1777872642 | 16.11° C | 85% | 1019.2 hPa | 0 mm | - | - | - |
| 1777872033 | 16.11° C | 84% | 1019.4 hPa | 0 mm | - | - | - |
| 1777870532 | 16.11° C | 83% | 1019.4 hPa | 0 mm | - | - | - |
| 1777869945 | 16.67° C | 82% | 1019.6 hPa | 0 mm | - | - | - |
| 1777869631 | 16.67° C | 82% | 1019.6 hPa | 0 mm | - | - | - |
| 1777867531 | 18.33° C | 77% | 1019.7 hPa | 0 mm | - | - | - |
| 1777863928 | 19.44° C | 73% | 1019.5 hPa | 0 mm | - | - | - |
| 1777863031 | 19.44° C | 72% | 1019.2 hPa | 0 mm | - | - | - |
| 1777859429 | 20.56° C | 67% | 1018.5 hPa | 0 mm | - | - | - |
| 1777856131 | 21.67° C | 61% | 1017.7 hPa | 0 mm | - | - | - |
| 1777847445 | 26.11° C | 51% | 1017.3 hPa | 0 mm | - | - | - |
| 1777843231 | 27.22° C | 44% | 1017.2 hPa | 0 mm | - | - | - |
| 1777842630 | 27.22° C | 44% | 1017.1 hPa | 0 mm | - | - | - |
| 1777841145 | 27.22° C | 44% | 1017.3 hPa | 0 mm | - | - | - |
| 1777840262 | 26.67° C | 46% | 1017.4 hPa | 0 mm | - | - | - |
* Rain latest hour (hover to see other rain measurements)
** Current wind speed in m/s (hover to see current wind gust speed)